Time;durP1;ratioP1;P1;durP2;ratioP2;P2;SDS_P1;SDS_P2;PMS_P1;PMS_P2;Temp;Humidity;BMP_temperature;BMP_pressure;BME280_temperature;BME280_humidity;BME280_pressure;Samples;Min_cycle;Max_cycle;Signal;HPM_P1;HPM_P2
2022/05/20 00:02:03;;;;;;;28.70;15.63;;;12.50;99.90;;;;;;5054579;28;20041;-91
2022/05/20 00:04:29;;;;;;;26.00;14.85;;;12.50;99.90;;;;;;5036453;28;20151;-91
2022/05/20 00:06:54;;;;;;;25.98;15.07;;;12.50;99.90;;;;;;5036857;28;20140;-92
2022/05/20 00:09:20;;;;;;;30.48;18.23;;;12.50;99.90;;;;;;5035616;28;20052;-91
2022/05/20 00:11:46;;;;;;;37.97;19.02;;;12.50;99.90;;;;;;5054271;28;20045;-90
2022/05/20 00:14:12;;;;;;;39.45;19.63;;;12.40;99.90;;;;;;5053998;28;20040;-91
2022/05/20 00:16:38;;;;;;;42.88;20.25;;;12.50;99.90;;;;;;5053993;28;20053;-92
2022/05/20 00:19:08;;;;;;;36.90;20.00;;;12.40;99.90;;;;;;5054083;28;20045;-92
2022/05/20 00:21:34;;;;;;;34.15;19.23;;;12.40;99.90;;;;;;5036211;28;20040;-91
2022/05/20 00:24:00;;;;;;;37.55;20.50;;;12.40;99.90;;;;;;5054079;28;20072;-92
2022/05/20 00:26:26;;;;;;;35.70;20.33;;;12.40;99.90;;;;;;5036249;28;20041;-91
2022/05/20 00:28:53;;;;;;;42.00;21.95;;;12.30;99.90;;;;;;5053805;28;20489;-91
2022/05/20 00:31:22;;;;;;;43.60;21.60;;;12.30;99.90;;;;;;5054017;28;20119;-92
2022/05/20 00:33:48;;;;;;;41.97;22.05;;;12.30;99.90;;;;;;5053796;28;20401;-91
2022/05/20 00:36:14;;;;;;;42.72;22.77;;;12.30;99.90;;;;;;5053848;28;20477;-91
2022/05/20 00:38:40;;;;;;;48.83;24.05;;;12.30;99.90;;;;;;5036078;28;20046;-91
2022/05/20 00:41:07;;;;;;;44.70;23.42;;;12.20;99.90;;;;;;5053717;28;20098;-91
2022/05/20 00:43:39;;;;;;;52.38;27.20;;;12.20;99.90;;;;;;5036137;28;20094;-92
2022/05/20 00:46:10;;;;;;;55.25;26.52;;;12.20;99.90;;;;;;5036092;28;20044;-92
2022/05/20 00:48:37;;;;;;;55.55;29.95;;;12.10;99.90;;;;;;5053767;28;20124;-90
2022/05/20 00:51:08;;;;;;;54.45;30.23;;;12.10;99.90;;;;;;5035934;28;20067;-91
2022/05/20 00:53:49;;;;;;;59.58;31.90;;;12.10;99.90;;;;;;5035780;28;20469;-92
2022/05/20 00:56:23;;;;;;;60.67;31.55;;;12.10;99.90;;;;;;5053712;28;20057;-92
2022/05/20 00:58:54;;;;;;;57.83;30.67;;;12.10;99.90;;;;;;5053455;28;20476;-92
2022/05/20 01:01:20;;;;;;;57.67;29.30;;;12.00;99.90;;;;;;5035680;28;20055;-92
2022/05/20 01:03:47;;;;;;;55.50;27.40;;;12.00;99.90;;;;;;5035648;28;20132;-92
2022/05/20 01:06:13;;;;;;;56.40;28.70;;;12.00;99.90;;;;;;5053979;28;20044;-92
2022/05/20 01:08:41;;;;;;;62.05;28.35;;;12.00;99.90;;;;;;5053223;28;20536;-92
2022/05/20 01:11:06;;;;;;;52.10;28.20;;;12.00;99.90;;;;;;5053540;28;20041;-92
2022/05/20 01:13:33;;;;;;;58.13;26.38;;;12.00;99.90;;;;;;5035576;28;20140;-92
2022/05/20 01:16:02;;;;;;;55.25;27.15;;;12.00;99.90;;;;;;5053128;28;20053;-92
2022/05/20 01:18:33;;;;;;;55.70;27.15;;;11.90;99.90;;;;;;5053460;28;20052;-92
2022/05/20 01:20:59;;;;;;;51.88;24.95;;;11.90;99.90;;;;;;5037207;28;20045;-92
2022/05/20 01:23:26;;;;;;;46.72;25.05;;;11.90;99.90;;;;;;5039451;28;20124;-92
2022/05/20 01:25:54;;;;;;;53.65;24.90;;;12.00;99.90;;;;;;5057479;28;20041;-92
2022/05/20 01:28:22;;;;;;;51.17;25.10;;;12.00;99.90;;;;;;5057448;28;20045;-92
2022/05/20 01:30:57;;;;;;;51.45;25.40;;;12.00;99.90;;;;;;5057399;28;20481;-93
2022/05/20 01:33:27;;;;;;;56.72;24.58;;;12.00;99.90;;;;;;5039272;28;20118;-92
2022/05/20 01:35:54;;;;;;;47.33;23.30;;;12.00;99.90;;;;;;5057202;28;20494;-92
2022/05/20 01:38:20;;;;;;;51.10;24.27;;;12.00;99.90;;;;;;5057278;28;20037;-92
2022/05/20 01:40:56;;;;;;;49.28;23.95;;;12.00;99.90;;;;;;5057259;28;20056;-92
2022/05/20 01:43:49;;;;;;;54.15;24.25;;;12.00;99.90;;;;;;5039382;28;20102;-91
2022/05/20 01:46:41;;;;;;;46.53;21.35;;;12.00;99.90;;;;;;5057174;28;20056;-92
2022/05/20 01:49:07;;;;;;;50.33;21.88;;;12.00;99.90;;;;;;5057143;28;20048;-92
2022/05/20 01:51:48;;;;;;;45.25;23.15;;;12.00;99.90;;;;;;5039216;28;20049;-92
2022/05/20 01:54:23;;;;;;;40.53;21.88;;;11.90;99.90;;;;;;5039196;28;20049;-91
2022/05/20 01:56:54;;;;;;;47.95;21.50;;;11.90;99.90;;;;;;5039158;28;20392;-91
2022/05/20 01:59:42;;;;;;;42.47;20.98;;;11.90;99.90;;;;;;5039143;28;20078;-91
2022/05/20 02:02:24;;;;;;;36.17;19.60;;;11.90;99.90;;;;;;5039032;28;20052;-91
2022/05/20 02:05:00;;;;;;;41.30;20.48;;;11.80;99.90;;;;;;5056491;28;20385;-91
2022/05/20 02:07:30;;;;;;;46.10;23.63;;;11.70;99.90;;;;;;5056755;28;20147;-91
2022/05/20 02:10:11;;;;;;;40.85;21.05;;;11.80;99.90;;;;;;5056742;28;20107;-92
2022/05/20 02:12:46;;;;;;;44.35;22.38;;;11.80;99.90;;;;;;5056419;28;20041;-92
2022/05/20 02:15:27;;;;;;;46.80;22.25;;;11.80;99.90;;;;;;5056388;28;20049;-92
2022/05/20 02:17:58;;;;;;;44.53;21.92;;;11.70;99.90;;;;;;5056409;28;20057;-92
2022/05/20 02:20:32;;;;;;;44.50;22.90;;;11.70;99.90;;;;;;5056457;28;20041;-92
2022/05/20 02:23:04;;;;;;;43.25;21.85;;;11.70;99.90;;;;;;5056501;28;20063;-92
2022/05/20 02:25:37;;;;;;;46.38;22.73;;;11.60;99.90;;;;;;5038335;28;20044;-92
2022/05/20 02:28:55;;;;;;;45.45;21.25;;;11.60;99.90;;;;;;5056190;28;20497;-92
2022/05/20 02:31:29;;;;;;;39.72;22.05;;;11.60;99.90;;;;;;5034133;28;20057;-91
2022/05/20 02:33:55;;;;;;;48.80;23.98;;;11.60;99.90;;;;;;5037609;28;20041;-91
2022/05/20 02:36:32;;;;;;;52.83;27.85;;;11.50;99.90;;;;;;5055961;28;20047;-92
2022/05/20 02:38:58;;;;;;;54.50;26.67;;;11.60;99.90;;;;;;5038494;28;20060;-92
2022/05/20 02:41:25;;;;;;;51.85;25.60;;;11.60;99.90;;;;;;5056064;28;20044;-92
2022/05/20 02:43:51;;;;;;;59.58;29.20;;;11.60;99.90;;;;;;5055910;28;20037;-91
2022/05/20 02:46:17;;;;;;;56.17;27.92;;;11.60;99.90;;;;;;5055739;28;20528;-92
2022/05/20 02:48:42;;;;;;;55.28;26.48;;;11.60;99.90;;;;;;5055931;28;20045;-91
2022/05/20 02:51:09;;;;;;;54.03;25.92;;;11.60;99.90;;;;;;5037935;28;20511;-87
2022/05/20 02:53:35;;;;;;;55.67;29.05;;;11.60;99.90;;;;;;5055908;28;20085;-92
2022/05/20 02:56:03;;;;;;;54.25;27.33;;;11.60;99.90;;;;;;5055863;28;20041;-92
2022/05/20 03:04:12;;;;;;;53.97;27.63;;;11.50;99.90;;;;;;5037789;28;20106;-91
2022/05/20 03:06:39;;;;;;;53.97;26.48;;;11.50;99.90;;;;;;5055706;28;20127;-92
2022/05/20 03:09:07;;;;;;;55.03;28.27;;;11.40;99.90;;;;;;5055575;28;20040;-92
2022/05/20 03:11:34;;;;;;;47.42;26.67;;;11.50;99.90;;;;;;5037800;28;20064;-92
2022/05/20 03:14:01;;;;;;;58.88;28.15;;;11.50;99.90;;;;;;5055584;28;20079;-89
2022/05/20 03:16:27;;;;;;;49.42;25.45;;;11.40;99.90;;;;;;5054992;28;20063;-92
2022/05/20 03:18:52;;;;;;;47.53;26.23;;;11.40;99.90;;;;;;5055103;28;20036;-92
2022/05/20 03:21:18;;;;;;;50.33;25.50;;;11.30;99.90;;;;;;5054845;28;20044;-93
2022/05/20 03:23:43;;;;;;;57.95;28.92;;;11.30;99.90;;;;;;5036805;28;20415;-92
2022/05/20 03:26:09;;;;;;;66.15;30.17;;;11.40;99.90;;;;;;5036753;28;20084;-91
2022/05/20 03:28:35;;;;;;;68.68;31.55;;;11.50;99.90;;;;;;5054075;28;20404;-92
2022/05/20 03:31:07;;;;;;;58.97;30.38;;;11.40;99.90;;;;;;5036591;28;20044;-92
2022/05/20 03:33:36;;;;;;;62.22;30.65;;;11.40;99.90;;;;;;5054988;28;20492;-92
2022/05/20 03:36:03;;;;;;;58.20;30.60;;;11.40;99.90;;;;;;5037069;28;20389;-92
2022/05/20 03:38:29;;;;;;;61.70;29.83;;;11.40;99.90;;;;;;5055088;28;20081;-92
2022/05/20 03:40:55;;;;;;;56.13;28.02;;;11.40;99.90;;;;;;5054584;28;20445;-92
2022/05/20 03:43:21;;;;;;;55.35;30.50;;;11.30;99.90;;;;;;5037149;28;20123;-87
2022/05/20 03:45:47;;;;;;;59.50;28.08;;;11.30;99.90;;;;;;5037047;28;20109;-92
2022/05/20 03:48:13;;;;;;;51.75;26.33;;;11.30;99.90;;;;;;5054763;28;20119;-91
2022/05/20 03:50:39;;;;;;;51.15;27.20;;;11.30;99.90;;;;;;5054494;28;20498;-92
2022/05/20 03:53:05;;;;;;;58.25;28.65;;;11.20;99.90;;;;;;5036553;28;20052;-92
2022/05/20 03:55:30;;;;;;;58.50;29.10;;;11.20;99.90;;;;;;5054450;28;20056;-91
2022/05/20 03:57:56;;;;;;;59.40;29.83;;;11.20;99.90;;;;;;5036764;28;20041;-91
2022/05/20 04:00:22;;;;;;;67.43;31.45;;;11.30;99.90;;;;;;5036435;28;20120;-91
2022/05/20 04:02:47;;;;;;;53.75;28.23;;;11.40;99.90;;;;;;5054225;28;20048;-92
2022/05/20 04:05:13;;;;;;;55.25;29.10;;;11.40;99.90;;;;;;5036344;28;20040;-92
2022/05/20 04:07:39;;;;;;;61.55;29.33;;;11.30;99.90;;;;;;5036275;28;20503;-92
2022/05/20 04:10:06;;;;;;;54.42;30.33;;;11.40;99.90;;;;;;5054375;28;20052;-91
2022/05/20 04:12:40;;;;;;;71.65;32.15;;;11.40;99.90;;;;;;5054283;28;20045;-91
2022/05/20 04:15:11;;;;;;;62.35;29.60;;;11.60;99.90;;;;;;5036442;28;20067;-91
2022/05/20 04:17:37;;;;;;;53.28;29.77;;;11.60;99.90;;;;;;5053676;28;20132;-90
2022/05/20 04:20:04;;;;;;;60.55;31.42;;;11.70;99.90;;;;;;5036256;28;20195;-90
2022/05/20 04:22:32;;;;;;;69.30;30.38;;;11.70;99.90;;;;;;5054294;28;20045;-90
2022/05/20 04:24:59;;;;;;;64.25;31.58;;;11.80;99.90;;;;;;5053986;28;20123;-92
2022/05/20 04:27:27;;;;;;;61.85;30.65;;;11.80;99.90;;;;;;5035989;28;20485;-92
2022/05/20 04:29:53;;;;;;;60.38;30.80;;;11.90;99.90;;;;;;5035889;28;20183;-91
2022/05/20 04:32:19;;;;;;;61.95;29.85;;;11.90;99.90;;;;;;5053829;28;20068;-91
2022/05/20 04:34:45;;;;;;;67.10;30.65;;;11.90;99.90;;;;;;5053945;28;20503;-92
2022/05/20 04:37:11;;;;;;;58.05;30.52;;;12.00;99.90;;;;;;5035751;28;20500;-92
2022/05/20 04:39:36;;;;;;;57.10;30.15;;;12.00;99.90;;;;;;5036044;28;20126;-92
2022/05/20 04:47:32;;;;;;;54.08;27.70;;;12.10;99.90;;;;;;5053673;28;20099;-91
2022/05/20 04:49:58;;;;;;;52.88;27.35;;;12.00;99.90;;;;;;5035925;28;20532;-91
2022/05/20 04:52:24;;;;;;;51.55;28.63;;;12.00;99.90;;;;;;5035683;28;20053;-92
2022/05/20 04:54:49;;;;;;;55.10;29.27;;;12.00;99.90;;;;;;5053286;28;20128;-87
2022/05/20 04:57:27;;;;;;;49.30;27.73;;;12.00;99.90;;;;;;5035383;28;20053;-91
2022/05/20 05:00:06;;;;;;;55.13;29.70;;;12.00;99.90;;;;;;5035500;28;20077;-90
2022/05/20 05:02:32;;;;;;;57.53;29.58;;;12.10;99.90;;;;;;5053548;28;20055;-90
2022/05/20 05:04:58;;;;;;;51.85;29.92;;;12.20;99.90;;;;;;5053589;28;20037;-90
2022/05/20 05:07:24;;;;;;;62.10;33.03;;;12.50;99.90;;;;;;5053286;28;20044;-91
2022/05/20 05:09:51;;;;;;;61.17;32.42;;;12.60;99.90;;;;;;5053176;28;20079;-91
2022/05/20 05:12:18;;;;;;;55.88;31.15;;;12.90;99.90;;;;;;5053238;28;20080;-91
2022/05/20 05:14:49;;;;;;;52.53;28.17;;;13.00;99.90;;;;;;5035620;28;20053;-90
2022/05/20 05:18:09;;;;;;;49.22;27.27;;;13.20;99.90;;;;;;5035220;28;20140;-86
2022/05/20 05:20:04;;;;;;;53.08;27.00;;;13.30;99.90;;;;;;5052859;28;20047;-92
2022/05/20 05:22:30;;;;;;;54.72;29.20;;;13.50;99.90;;;;;;5035740;28;20041;-92
2022/05/20 05:24:55;;;;;;;51.80;24.98;;;13.60;99.90;;;;;;5053360;28;20424;-90
2022/05/20 05:27:21;;;;;;;46.60;24.80;;;13.80;99.90;;;;;;5035672;28;20397;-90
2022/05/20 05:29:46;;;;;;;54.75;24.25;;;14.00;99.90;;;;;;5053352;28;20036;-91
2022/05/20 05:32:12;;;;;;;44.00;22.05;;;14.10;99.90;;;;;;5035210;28;20076;-92
2022/05/20 05:34:38;;;;;;;43.92;22.77;;;14.20;99.90;;;;;;5035518;28;20499;-91
2022/05/20 05:37:04;;;;;;;45.30;22.70;;;14.30;99.90;;;;;;5035340;28;20111;-91
2022/05/20 05:39:30;;;;;;;42.95;22.88;;;14.40;99.90;;;;;;5053150;28;20037;-92
2022/05/20 05:41:58;;;;;;;44.47;21.40;;;14.60;99.90;;;;;;5053184;28;20044;-92
2022/05/20 05:44:24;;;;;;;46.10;20.38;;;14.80;99.90;;;;;;5053070;28;20072;-91
2022/05/20 05:46:49;;;;;;;43.90;20.48;;;14.90;99.90;;;;;;5052987;28;20430;-91
2022/05/20 05:49:15;;;;;;;41.38;20.20;;;15.10;99.90;;;;;;5035149;28;20124;-92
2022/05/20 05:51:41;;;;;;;46.00;20.85;;;15.10;99.90;;;;;;5052793;28;20061;-91
2022/05/20 05:54:10;;;;;;;39.58;19.35;;;15.20;99.90;;;;;;5052853;28;20123;-91
2022/05/20 05:56:36;;;;;;;32.53;18.45;;;15.20;99.90;;;;;;5053017;28;20095;-91
2022/05/20 05:59:03;;;;;;;34.88;15.95;;;15.20;99.90;;;;;;5053004;28;20036;-91
2022/05/20 06:01:29;;;;;;;32.13;14.20;;;15.40;99.90;;;;;;5053044;28;20132;-91
2022/05/20 06:03:54;;;;;;;30.33;16.27;;;15.40;99.90;;;;;;5052690;28;20483;-90
2022/05/20 06:06:20;;;;;;;33.13;15.55;;;15.40;99.90;;;;;;5052985;28;20044;-90
2022/05/20 06:08:46;;;;;;;37.03;14.27;;;15.40;99.90;;;;;;5037719;28;20052;-90
2022/05/20 06:11:12;;;;;;;29.60;14.45;;;15.40;99.90;;;;;;5056740;28;20508;-91
2022/05/20 06:13:38;;;;;;;28.00;13.75;;;15.70;99.90;;;;;;5056640;28;20056;-90
2022/05/20 06:16:04;;;;;;;30.67;13.43;;;15.80;99.90;;;;;;5038286;28;20053;-91
2022/05/20 06:18:29;;;;;;;29.02;13.15;;;16.00;99.90;;;;;;5038825;28;20088;-91
2022/05/20 06:20:56;;;;;;;31.67;14.07;;;15.80;99.90;;;;;;5056141;28;20461;-91
2022/05/20 06:23:22;;;;;;;27.05;13.98;;;15.80;99.90;;;;;;5038605;28;20045;-91
2022/05/20 06:25:48;;;;;;;26.52;14.55;;;15.50;99.90;;;;;;5038537;28;20401;-91
2022/05/20 06:28:15;;;;;;;32.55;14.63;;;15.30;99.90;;;;;;5038409;28;20397;-93
2022/05/20 06:30:42;;;;;;;23.77;13.13;;;15.40;99.90;;;;;;5056345;28;20059;-92
2022/05/20 06:33:07;;;;;;;34.17;14.38;;;15.60;99.90;;;;;;5056097;28;20179;-91
2022/05/20 06:41:03;;;;;;;27.15;13.60;;;16.00;99.90;;;;;;5037926;28;20504;-92
2022/05/20 06:43:29;;;;;;;29.88;13.02;;;16.00;99.90;;;;;;5037801;28;20040;-91
2022/05/20 06:45:58;;;;;;;29.48;11.77;;;16.00;99.90;;;;;;5038249;28;20084;-93
2022/05/20 06:48:43;;;;;;;26.63;10.18;;;15.90;99.90;;;;;;5056001;28;20048;-91
2022/05/20 06:51:10;;;;;;;29.15;11.60;;;15.90;99.90;;;;;;5056108;28;20396;-92
2022/05/20 06:53:36;;;;;;;28.83;13.63;;;15.90;99.90;;;;;;5056483;28;20037;-91
2022/05/20 06:56:03;;;;;;;25.77;11.48;;;15.70;99.90;;;;;;5038286;28;20047;-90
2022/05/20 06:58:30;;;;;;;30.02;14.63;;;15.90;99.90;;;;;;5056085;28;20045;-88
2022/05/20 07:00:56;;;;;;;31.20;13.50;;;16.10;99.90;;;;;;5036864;28;20069;-88
2022/05/20 07:03:22;;;;;;;31.92;12.27;;;16.30;99.90;;;;;;5037881;28;20073;-86
2022/05/20 07:05:48;;;;;;;27.33;12.43;;;16.40;99.90;;;;;;5036974;28;20061;-89
2022/05/20 07:08:14;;;;;;;28.13;13.15;;;16.50;99.90;;;;;;5055968;28;20467;-89
2022/05/20 07:10:42;;;;;;;29.17;13.60;;;16.60;99.90;;;;;;5038174;28;20048;-89
2022/05/20 07:13:08;;;;;;;29.83;17.40;;;16.80;99.90;;;;;;5038061;28;20052;-89
2022/05/20 07:15:33;;;;;;;34.78;17.02;;;16.80;99.90;;;;;;5037524;28;20045;-90
2022/05/20 07:17:59;;;;;;;32.95;17.88;;;16.80;99.90;;;;;;5055406;28;20037;-90
2022/05/20 07:20:25;;;;;;;34.40;18.50;;;16.80;99.90;;;;;;5037897;28;20048;-89
2022/05/20 07:22:51;;;;;;;34.78;19.80;;;16.60;99.90;;;;;;5037831;28;20049;-90
2022/05/20 07:25:19;;;;;;;36.97;19.05;;;16.80;99.90;;;;;;5038223;28;20082;-90
2022/05/20 07:27:45;;;;;;;32.80;17.90;;;17.00;99.90;;;;;;5037313;28;20120;-89
2022/05/20 07:30:13;;;;;;;34.78;17.88;;;17.00;99.90;;;;;;5037458;28;20480;-89
2022/05/20 07:32:39;;;;;;;43.47;20.25;;;16.90;99.90;;;;;;5036876;28;20500;-89
2022/05/20 07:35:05;;;;;;;36.08;18.63;;;17.00;99.90;;;;;;5037260;28;20048;-94
2022/05/20 07:37:31;;;;;;;37.03;17.45;;;17.30;99.90;;;;;;5055032;28;20029;-91
2022/05/20 07:39:57;;;;;;;32.35;15.40;;;17.10;99.90;;;;;;5037048;28;20060;-92
2022/05/20 07:42:22;;;;;;;30.83;13.85;;;17.10;99.90;;;;;;5036797;28;20041;-91
2022/05/20 07:44:49;;;;;;;33.08;16.70;;;16.90;99.90;;;;;;5036698;28;20097;-91
2022/05/20 07:47:15;;;;;;;27.55;14.07;;;16.60;99.90;;;;;;5037909;28;20044;-92
2022/05/20 07:49:40;;;;;;;27.45;15.50;;;16.40;99.90;;;;;;5054840;28;20037;-91
2022/05/20 07:52:09;;;;;;;36.42;15.52;;;16.40;99.90;;;;;;5054721;28;20059;-93
2022/05/20 07:54:40;;;;;;;37.03;17.20;;;16.80;99.90;;;;;;5036858;28;20049;-93
2022/05/20 07:57:13;;;;;;;28.02;14.90;;;16.90;99.90;;;;;;5055518;28;20118;-93
2022/05/20 07:59:53;;;;;;;29.98;15.32;;;17.40;99.90;;;;;;5054969;28;20549;-93
2022/05/20 08:02:22;;;;;;;22.38;11.48;;;17.40;99.90;;;;;;5055274;28;20049;-92
2022/05/20 08:04:56;;;;;;;24.73;12.73;;;17.30;99.90;;;;;;5054664;28;20045;-92
2022/05/20 08:07:34;;;;;;;27.23;13.18;;;17.10;99.90;;;;;;5027612;28;20041;-93
2022/05/20 08:10:27;;;;;;;29.00;14.63;;;17.30;99.90;;;;;;5043812;28;20064;-91
2022/05/20 08:12:53;;;;;;;31.85;14.82;;;17.20;99.90;;;;;;5033054;28;20481;-91
2022/05/20 08:15:19;;;;;;;25.35;16.17;;;17.20;99.90;;;;;;5054428;28;20131;-92
2022/05/20 08:17:45;;;;;;;30.55;16.40;;;17.20;99.90;;;;;;5038257;28;20053;-91
2022/05/20 08:20:18;;;;;;;32.15;16.00;;;17.20;99.90;;;;;;5054270;28;20051;-92
2022/05/20 08:22:44;;;;;;;25.10;15.00;;;17.30;99.90;;;;;;5054688;28;20141;-93
2022/05/20 08:25:09;;;;;;;26.13;14.75;;;17.20;99.90;;;;;;5054015;28;20472;-93
2022/05/20 08:27:35;;;;;;;31.45;16.38;;;17.40;99.90;;;;;;5037231;28;20052;-91
2022/05/20 08:30:20;;;;;;;35.05;19.63;;;17.50;99.90;;;;;;5053320;28;20038;-92
2022/05/20 08:32:47;;;;;;;31.80;22.38;;;17.80;99.90;;;;;;5033906;28;20524;-93
2022/05/20 08:35:13;;;;;;;28.20;17.27;;;17.90;99.90;;;;;;5036050;28;20053;-93
2022/05/20 08:37:44;;;;;;;27.67;17.52;;;18.00;99.90;;;;;;5054191;28;20063;-93
2022/05/20 08:40:13;;;;;;;23.70;16.00;;;18.00;99.90;;;;;;5054571;28;20037;-94
2022/05/20 08:42:39;;;;;;;24.92;16.17;;;17.80;99.90;;;;;;5037262;28;20046;-94
2022/05/20 08:45:06;;;;;;;36.58;19.98;;;17.90;99.90;;;;;;5016192;28;20045;-94
2022/05/20 08:47:40;;;;;;;31.90;20.40;;;17.70;99.90;;;;;;5016577;28;20398;-94
2022/05/20 08:50:12;;;;;;;30.58;19.27;;;17.80;99.90;;;;;;5016915;28;20037;-94
2022/05/20 08:52:38;;;;;;;33.80;20.23;;;17.90;99.90;;;;;;5018095;28;20050;-94
2022/05/20 08:55:04;;;;;;;38.20;22.75;;;17.80;99.90;;;;;;5035518;28;20048;-93
2022/05/20 08:57:33;;;;;;;31.95;19.00;;;17.90;99.90;;;;;;5036312;28;20049;-93
2022/05/20 08:59:59;;;;;;;30.25;18.25;;;17.80;99.90;;;;;;5054273;28;20064;-93
2022/05/20 09:02:25;;;;;;;28.50;16.02;;;17.90;99.90;;;;;;5054108;28;20045;-92
2022/05/20 09:04:51;;;;;;;26.42;15.13;;;17.90;99.90;;;;;;5053212;28;20452;-91
2022/05/20 09:07:19;;;;;;;27.17;15.52;;;18.00;99.90;;;;;;5036463;28;20067;-91
2022/05/20 09:09:58;;;;;;;31.42;14.95;;;18.00;99.90;;;;;;5053517;28;20116;-92
2022/05/20 09:12:36;;;;;;;24.00;16.65;;;18.00;99.90;;;;;;5035673;28;20098;-91
2022/05/20 09:18:02;;;;;;;32.45;22.30;;;18.30;99.90;;;;;;5035553;28;20056;-92
2022/05/20 09:20:28;;;;;;;28.25;16.65;;;18.40;99.90;;;;;;5035231;28;20048;-88
2022/05/20 09:23:15;;;;;;;26.98;16.00;;;18.40;99.90;;;;;;5035239;28;20041;-91
2022/05/20 09:25:56;;;;;;;26.95;17.08;;;18.40;99.90;;;;;;5053015;28;20049;-89
2022/05/20 09:28:41;;;;;;;35.35;21.33;;;18.10;99.90;;;;;;5052880;28;20116;-90
2022/05/20 09:31:15;;;;;;;41.72;24.98;;;18.30;99.90;;;;;;5035141;28;20049;-91
2022/05/20 09:33:50;;;;;;;30.05;14.80;;;18.60;99.90;;;;;;5035357;28;20056;-91
2022/05/20 09:36:34;;;;;;;23.83;14.35;;;18.50;99.90;;;;;;5053201;28;20121;-91
2022/05/20 09:39:10;;;;;;;30.35;17.20;;;18.60;99.90;;;;;;5033930;28;20548;-89
2022/05/20 09:41:45;;;;;;;26.48;16.35;;;18.60;99.90;;;;;;5054001;28;20045;-87
2022/05/20 09:44:12;;;;;;;25.15;16.00;;;18.70;99.90;;;;;;5039225;28;20037;-87
2022/05/20 09:46:51;;;;;;;25.02;16.80;;;18.70;99.90;;;;;;5057006;28;20048;-87
2022/05/20 09:49:25;;;;;;;26.20;16.85;;;18.90;99.90;;;;;;5056829;28;20049;-85
2022/05/20 09:51:57;;;;;;;26.27;15.60;;;19.10;99.90;;;;;;5056651;28;20119;-86
2022/05/20 09:54:35;;;;;;;25.60;16.00;;;18.90;99.90;;;;;;5056846;28;20049;-84
2022/05/20 09:57:15;;;;;;;27.30;17.08;;;19.00;99.90;;;;;;5056766;28;20056;-90
2022/05/20 09:59:56;;;;;;;33.75;21.95;;;18.70;99.90;;;;;;5056605;28;20045;-86
2022/05/20 10:02:28;;;;;;;38.38;25.63;;;18.80;99.90;;;;;;5056418;28;20455;-84
2022/05/20 10:05:09;;;;;;;28.50;18.40;;;18.80;99.90;;;;;;5056557;28;20049;-85
2022/05/20 10:08:07;;;;;;;28.33;15.27;;;18.90;99.90;;;;;;5038670;28;20299;-86
2022/05/20 10:10:40;;;;;;;22.23;14.23;;;18.90;99.90;;;;;;5038631;28;20539;-87
2022/05/20 10:13:14;;;;;;;27.17;14.98;;;18.60;99.90;;;;;;5056146;28;20445;-87
2022/05/20 10:15:47;;;;;;;19.40;14.02;;;18.70;99.90;;;;;;5038480;28;20061;-83
2022/05/20 10:18:30;;;;;;;25.90;12.93;;;18.80;99.90;;;;;;5038345;28;20089;-85
2022/05/20 10:21:27;;;;;;;28.52;18.50;;;18.70;99.90;;;;;;5056256;28;20045;-85
2022/05/20 10:24:02;;;;;;;26.25;14.07;;;18.90;99.90;;;;;;5056185;28;20045;-85
2022/05/20 10:26:39;;;;;;;25.17;13.07;;;18.90;99.90;;;;;;5056220;28;20045;-85
2022/05/20 10:32:43;;;;;;;23.13;12.88;;;19.00;99.90;;;;;;4964116;28;20113;-95
2022/05/20 10:35:20;;;;;;;20.40;11.60;;;19.00;99.90;;;;;;4993880;28;20083;-93
2022/05/20 10:38:04;;;;;;;20.58;12.13;;;19.00;99.90;;;;;;5056524;28;20048;-92
2022/05/20 10:40:55;;;;;;;22.75;12.77;;;19.10;99.90;;;;;;5037895;28;20144;-87
2022/05/20 10:48:34;;;;;;;30.85;14.70;;;19.20;99.90;;;;;;5038110;28;20075;-85
2022/05/20 10:49:25;;;;;;;23.40;13.77;;;19.00;99.90;;;;;;5055373;28;20078;-86
2022/05/20 10:52:09;;;;;;;27.20;14.70;;;19.10;99.90;;;;;;5037643;28;20041;-86
2022/05/20 10:55:10;;;;;;;22.13;13.73;;;19.00;99.90;;;;;;5036838;28;20045;-86
2022/05/20 10:57:54;;;;;;;26.38;13.57;;;19.00;99.90;;;;;;5037512;28;20048;-85
2022/05/20 11:00:22;;;;;;;25.23;14.57;;;19.00;99.90;;;;;;5055300;28;20551;-86
2022/05/20 11:03:15;;;;;;;29.55;15.90;;;18.90;99.90;;;;;;5038009;28;20067;-86
2022/05/20 11:06:11;;;;;;;24.10;15.02;;;18.80;99.90;;;;;;5037303;28;20135;-86
2022/05/20 11:08:49;;;;;;;25.42;15.00;;;18.80;99.90;;;;;;5037449;28;20429;-86
2022/05/20 11:11:23;;;;;;;22.45;13.65;;;18.60;99.90;;;;;;5037555;28;20052;-85
2022/05/20 11:14:27;;;;;;;27.38;13.68;;;18.60;99.90;;;;;;5037367;28;20146;-86
2022/05/20 11:17:12;;;;;;;25.23;14.38;;;18.60;99.90;;;;;;5009579;28;20068;-87
2022/05/20 11:20:07;;;;;;;24.75;13.73;;;18.60;99.90;;;;;;5037203;28;20409;-86
2022/05/20 11:22:54;;;;;;;22.98;13.10;;;18.70;99.90;;;;;;5037218;28;20057;-87
2022/05/20 11:25:30;;;;;;;19.88;12.90;;;18.70;99.90;;;;;;5037262;28;20499;-86
2022/05/20 11:28:05;;;;;;;22.75;12.15;;;18.90;99.90;;;;;;5055144;28;20049;-85
2022/05/20 11:30:44;;;;;;;21.05;11.48;;;18.80;99.90;;;;;;5054948;28;20102;-85
2022/05/20 11:33:37;;;;;;;27.40;12.23;;;18.70;99.90;;;;;;5037014;28;20048;-85
2022/05/20 11:36:15;;;;;;;24.80;11.90;;;18.80;99.90;;;;;;5036773;28;20053;-85
2022/05/20 11:38:58;;;;;;;25.48;13.73;;;18.90;99.90;;;;;;5036736;28;20476;-85
2022/05/20 11:41:53;;;;;;;25.13;14.00;;;19.00;99.90;;;;;;5036581;28;20443;-86
2022/05/20 11:44:46;;;;;;;27.65;14.55;;;19.00;99.90;;;;;;5054772;28;20073;-90
2022/05/20 11:47:49;;;;;;;25.00;15.25;;;19.00;99.90;;;;;;5036670;28;20085;-85
2022/05/20 11:50:38;;;;;;;28.42;16.90;;;18.90;99.90;;;;;;5054736;28;20057;-85
2022/05/20 11:53:17;;;;;;;22.20;12.13;;;19.10;99.90;;;;;;5054533;28;20045;-85
2022/05/20 11:55:51;;;;;;;25.88;13.27;;;19.10;99.90;;;;;;5054254;28;20037;-85
2022/05/20 11:58:40;;;;;;;23.70;14.00;;;19.30;99.90;;;;;;5036528;28;20114;-85
2022/05/20 12:01:09;;;;;;;28.42;15.10;;;19.20;99.90;;;;;;5036272;28;20515;-85
2022/05/20 12:06:27;;;;;;;31.13;13.90;;;19.10;99.90;;;;;;5036085;28;20500;-86
2022/05/20 12:08:58;;;;;;;28.52;13.38;;;19.20;99.90;;;;;;5054187;28;20041;-85
2022/05/20 12:11:35;;;;;;;22.55;13.45;;;19.30;99.90;;;;;;5036441;28;20041;-86
2022/05/20 12:14:16;;;;;;;30.00;14.98;;;19.30;99.90;;;;;;5035854;28;20119;-85
2022/05/20 12:17:02;;;;;;;27.35;15.00;;;19.30;99.90;;;;;;5053827;28;20052;-83
2022/05/20 12:25:37;;;;;;;33.28;17.77;;;19.40;99.90;;;;;;5035562;28;20056;-86
2022/05/20 12:28:09;;;;;;;34.60;17.30;;;19.40;99.90;;;;;;5016203;28;20107;-87
2022/05/20 12:30:45;;;;;;;34.47;20.60;;;19.40;99.90;;;;;;5035528;28;20102;-86
2022/05/20 12:33:25;;;;;;;33.05;17.45;;;19.30;99.90;;;;;;5053556;28;20464;-86
2022/05/20 12:36:18;;;;;;;30.15;18.15;;;19.30;99.90;;;;;;5035954;28;20064;-86
2022/05/20 12:38:43;;;;;;;29.33;17.90;;;19.20;99.90;;;;;;5053779;28;20052;-87
2022/05/20 12:41:19;;;;;;;31.05;15.77;;;19.20;99.90;;;;;;5053601;28;20107;-86
2022/05/20 12:43:52;;;;;;;28.15;17.48;;;19.20;99.90;;;;;;5053358;28;20537;-87
2022/05/20 12:46:24;;;;;;;;;;;19.20;99.90;;;;;;5054072;28;20053;-86
2022/05/20 12:48:54;;;;;;;27.00;13.10;;;19.30;99.90;;;;;;5035562;28;19975;-86
2022/05/20 12:51:21;;;;;;;34.55;18.95;;;19.30;99.90;;;;;;5035914;28;20083;-86
2022/05/20 12:53:47;;;;;;;24.88;13.52;;;19.20;99.90;;;;;;5053314;28;20084;-86
2022/05/20 12:56:30;;;;;;;27.52;14.15;;;18.90;99.90;;;;;;5053496;28;20072;-86
2022/05/20 12:59:15;;;;;;;33.30;20.80;;;19.10;99.90;;;;;;5035364;28;20049;-86
2022/05/20 13:02:06;;;;;;;25.30;12.90;;;19.10;99.90;;;;;;5053369;28;20051;-86
2022/05/20 13:04:47;;;;;;;30.80;17.45;;;19.10;99.90;;;;;;5035231;28;20049;-86
2022/05/20 13:07:18;;;;;;;30.60;14.48;;;19.00;99.90;;;;;;5035274;28;20048;-86
2022/05/20 13:09:45;;;;;;;32.67;15.35;;;19.10;99.90;;;;;;5035297;28;20049;-85
2022/05/20 13:12:18;;;;;;;29.05;17.27;;;19.10;99.90;;;;;;5053246;28;20116;-86
2022/05/20 13:14:46;;;;;;;28.20;14.90;;;19.00;99.90;;;;;;5053102;28;20056;-85
2022/05/20 13:17:12;;;;;;;35.25;21.10;;;19.00;99.90;;;;;;5056963;28;20053;-86
2022/05/20 13:19:45;;;;;;;41.92;23.42;;;19.00;99.90;;;;;;5041581;28;20049;-85
2022/05/20 13:22:15;;;;;;;34.53;16.02;;;18.90;99.90;;;;;;5041648;28;20045;-86
2022/05/20 13:24:41;;;;;;;32.40;15.68;;;18.80;99.90;;;;;;5059654;28;20094;-86
2022/05/20 13:27:09;;;;;;;36.28;15.05;;;18.80;99.90;;;;;;5041612;28;20041;-86